Time;durP1;ratioP1;P1;durP2;ratioP2;P2;SDS_P1;SDS_P2;PMS_P1;PMS_P2;Temp;Humidity;BMP_temperature;BMP_pressure;BME280_temperature;BME280_humidity;BME280_pressure;Samples;Min_cycle;Max_cycle;Signal;HPM_P1;HPM_P2
2021/07/27 00:01:26;;;;;;;;;;;18.00;99.90;;;;;;5063243;28;20400;-73
2021/07/27 00:03:52;;;;;;;;;;;18.00;99.90;;;;;;5054285;28;19928;-74
2021/07/27 00:06:17;;;;;;;;;;;18.10;99.90;;;;;;5066657;28;19912;-73
2021/07/27 00:08:42;;;;;;;;;;;18.00;99.90;;;;;;5064304;28;19920;-73
2021/07/27 00:11:09;;;;;;;;;;;18.00;99.90;;;;;;5070748;28;19991;-73
2021/07/27 00:13:35;;;;;;;;;;;18.00;99.90;;;;;;5067982;28;19920;-74
2021/07/27 00:16:00;;;;;;;;;;;18.10;99.90;;;;;;5059784;28;20422;-73
2021/07/27 00:18:26;;;;;;;;;;;18.10;99.90;;;;;;5064244;28;19920;-72
2021/07/27 00:20:52;;;;;;;;;;;18.10;99.90;;;;;;5073181;28;19927;-73
2021/07/27 00:23:17;;;;;;;;;;;18.10;99.90;;;;;;5074093;28;19912;-74
2021/07/27 00:25:43;;;;;;;;;;;18.10;99.90;;;;;;5060703;28;20351;-73
2021/07/27 00:28:09;;;;;;;;;;;18.10;99.90;;;;;;5052750;28;20022;-73
2021/07/27 00:30:35;;;;;;;;;;;18.20;99.90;;;;;;5060644;28;19912;-73
2021/07/27 00:33:01;;;;;;;;;;;18.10;99.90;;;;;;5056822;28;19920;-73
2021/07/27 00:35:28;;;;;;;;;;;18.10;99.90;;;;;;5065208;28;19923;-73
2021/07/27 00:38:09;;;;;;;;;;;18.10;99.90;;;;;;5063259;28;19912;-74
2021/07/27 00:40:41;;;;;;;;;;;18.10;99.90;;;;;;5074105;28;19912;-73
2021/07/27 00:43:16;;;;;;;;;;;18.10;99.90;;;;;;5063588;28;19939;-73
2021/07/27 00:45:42;;;;;;;;;;;18.20;99.90;;;;;;5072004;28;19912;-74
2021/07/27 00:48:08;;;;;;;;;;;18.10;99.90;;;;;;5072122;28;19912;-73
2021/07/27 00:50:34;;;;;;;;;;;18.10;99.90;;;;;;5060766;28;20381;-74
2021/07/27 00:53:01;;;;;;;;;;;18.10;99.90;;;;;;5053436;28;19916;-74
2021/07/27 00:55:27;;;;;;;;;;;18.10;99.90;;;;;;5054030;28;19975;-74
2021/07/27 00:57:52;;;;;;;;;;;18.00;99.90;;;;;;5066235;28;19912;-74
2021/07/27 01:00:18;;;;;;;;;;;18.00;99.90;;;;;;5071901;28;19912;-74
2021/07/27 01:02:44;;;;;;;;;;;18.00;99.90;;;;;;5069078;28;19958;-73
2021/07/27 01:05:10;;;;;;;;;;;17.90;99.90;;;;;;5059996;28;20581;-74
2021/07/27 01:07:36;;;;;;;;;;;17.90;99.90;;;;;;5061537;28;19917;-73
2021/07/27 01:10:01;;;;;;;;;;;17.90;99.90;;;;;;5083551;28;20415;-73
2021/07/27 01:12:27;;;;;;;;;;;17.80;99.90;;;;;;5065223;28;19912;-74
2021/07/27 01:14:52;;;;;;;;;;;17.80;99.90;;;;;;5059116;28;19922;-73
2021/07/27 01:17:18;;;;;;;;;;;17.80;99.90;;;;;;5057041;28;20003;-73
2021/07/27 01:43:54;;;;;;;;;;;17.70;99.90;;;;;;5077666;28;19913;-74
2021/07/27 01:46:23;;;;;;;;;;;17.70;99.90;;;;;;5074772;28;19950;-74
2021/07/27 01:48:49;;;;;;;;;;;17.60;99.90;;;;;;5071049;28;19913;-75
2021/07/27 01:51:16;;;;;;;;;;;17.60;99.90;;;;;;5077714;28;19919;-74
2021/07/27 01:53:53;;;;;;;;;;;17.60;99.90;;;;;;5077818;28;20018;-74
2021/07/27 01:56:19;;;;;;;;;;;17.60;99.90;;;;;;5078048;28;19999;-74
2021/07/27 01:58:51;;;;;;;;;;;17.60;99.90;;;;;;5079134;28;19900;-74
2021/07/27 02:01:18;;;;;;;;;;;17.60;99.90;;;;;;5071475;28;19920;-74
2021/07/27 02:03:44;;;;;;;;;;;17.60;99.90;;;;;;5075480;28;20320;-74
2021/07/27 02:06:09;;;;;;;;;;;17.60;99.90;;;;;;5071596;28;19912;-75
2021/07/27 02:08:35;;;;;;;;;;;17.50;99.90;;;;;;5077572;28;20284;-75
2021/07/27 02:13:50;;;;;;;;;;;17.50;99.90;;;;;;5095527;28;20438;-76
2021/07/27 02:16:16;;;;;;;;;;;17.50;99.90;;;;;;5087046;28;19951;-74
2021/07/27 02:18:42;;;;;;;;;;;17.50;99.90;;;;;;5077122;28;19897;-74
2021/07/27 02:21:07;;;;;;;;;;;17.40;99.90;;;;;;5078096;28;19932;-75
2021/07/27 02:23:33;;;;;;;;;;;17.50;99.90;;;;;;5078115;28;19924;-75
2021/07/27 02:25:58;;;;;;;;;;;17.50;99.90;;;;;;5078162;28;20270;-74
2021/07/27 02:28:24;;;;;;;;;;;17.50;99.90;;;;;;5091489;28;20637;-75
2021/07/27 02:30:56;;;;;;;;;;;17.50;99.90;;;;;;5091712;28;19925;-74
2021/07/27 02:33:22;;;;;;;;;;;17.50;99.90;;;;;;5096943;28;19927;-74
2021/07/27 02:35:48;;;;;;;;;;;17.50;99.90;;;;;;5093549;28;19988;-75
2021/07/27 02:38:15;;;;;;;;;;;17.50;99.90;;;;;;5078023;28;19901;-74
2021/07/27 02:40:41;;;;;;;;;;;17.50;99.90;;;;;;5093130;28;19916;-75
2021/07/27 02:43:07;;;;;;;;;;;17.50;99.90;;;;;;5092964;28;19924;-75
2021/07/27 02:45:32;;;;;;;;;;;17.50;99.90;;;;;;5077603;28;19916;-75
2021/07/27 02:47:58;;;;;;;;;;;17.50;99.90;;;;;;5077136;28;19956;-74
2021/07/27 02:50:25;;;;;;;;;;;17.50;99.90;;;;;;5090180;28;19936;-72
2021/07/27 02:52:51;;;;;;;;;;;17.50;99.90;;;;;;5063611;28;20003;-74
2021/07/27 02:55:16;;;;;;;;;;;17.50;99.90;;;;;;5064137;28;19949;-73
2021/07/27 02:57:42;;;;;;;;;;;17.40;99.90;;;;;;5060360;28;19913;-75
2021/07/27 03:00:08;;;;;;;;;;;17.40;99.90;;;;;;5078644;28;19919;-75
2021/07/27 03:02:33;;;;;;;;;;;17.40;99.90;;;;;;5067953;28;19913;-75
2021/07/27 03:04:59;;;;;;;;;;;17.50;99.90;;;;;;5073278;28;19923;-74
2021/07/27 03:07:33;;;;;;;;;;;17.50;99.90;;;;;;5067827;28;20007;-74
2021/07/27 03:10:17;;;;;;;;;;;17.40;99.90;;;;;;5076219;28;19912;-75
2021/07/27 03:12:47;;;;;;;;;;;17.40;99.90;;;;;;5071650;28;19912;-73
2021/07/27 03:15:13;;;;;;;;;;;17.50;99.90;;;;;;5074394;28;20380;-75
2021/07/27 03:17:38;;;;;;;;;;;17.40;99.90;;;;;;5076355;28;20366;-74
2021/07/27 03:20:05;;;;;;;;;;;17.40;99.90;;;;;;5064298;28;19964;-75
2021/07/27 03:22:30;;;;;;;;;;;17.40;99.90;;;;;;5074344;28;20373;-75
2021/07/27 03:24:56;;;;;;;;;;;17.40;99.90;;;;;;5074034;28;19970;-75
2021/07/27 03:27:21;;;;;;;;;;;17.40;99.90;;;;;;5074329;28;19919;-75
2021/07/27 03:29:47;;;;;;;;;;;17.40;99.90;;;;;;5072651;28;19913;-75
2021/07/27 03:32:12;;;;;;;;;;;17.40;99.90;;;;;;5067318;28;19913;-75
2021/07/27 03:34:38;;;;;;;;;;;17.40;99.90;;;;;;5058760;28;19916;-75
2021/07/27 03:37:03;;;;;;;;;;;17.30;99.90;;;;;;5068987;28;19912;-75
2021/07/27 03:39:29;;;;;;;;;;;17.30;99.90;;;;;;5073081;28;19920;-74
2021/07/27 03:41:55;;;;;;;;;;;17.30;99.90;;;;;;5065166;28;19913;-75
2021/07/27 03:44:20;;;;;;;;;;;17.40;99.90;;;;;;5074854;28;20003;-75
2021/07/27 03:46:49;;;;;;;;;;;17.30;99.90;;;;;;5070664;28;20307;-75
2021/07/27 03:49:14;;;;;;;;;;;17.40;99.90;;;;;;5074493;28;19912;-75
2021/07/27 03:51:41;;;;;;;;;;;17.30;99.90;;;;;;5072398;28;20003;-75
2021/07/27 03:54:07;;;;;;;;;;;17.30;99.90;;;;;;5062639;28;20015;-75
2021/07/27 03:56:33;;;;;;;;;;;17.30;99.90;;;;;;5071369;28;20057;-75
2021/07/27 03:58:58;;;;;;;;;;;17.30;99.90;;;;;;5060246;28;19913;-75
2021/07/27 04:01:24;;;;;;;;;;;17.30;99.90;;;;;;5057468;28;20011;-74
2021/07/27 04:03:50;;;;;;;;;;;17.30;99.90;;;;;;5072191;28;19913;-75
2021/07/27 04:06:16;;;;;;;;;;;17.30;99.90;;;;;;5060965;28;19948;-75
2021/07/27 04:08:41;;;;;;;;;;;17.30;99.90;;;;;;5056353;28;19927;-74
2021/07/27 04:11:07;;;;;;;;;;;17.30;99.90;;;;;;5054471;28;19913;-74
2021/07/27 04:13:33;;;;;;;;;;;17.30;99.90;;;;;;5064466;28;20253;-74
2021/07/27 04:16:02;;;;;;;;;;;17.30;99.90;;;;;;5060705;28;19999;-75
2021/07/27 04:18:28;;;;;;;;;;;17.30;99.90;;;;;;5061939;28;19912;-75
2021/07/27 04:20:54;;;;;;;;;;;17.30;99.90;;;;;;5070654;28;19929;-75
2021/07/27 04:23:19;;;;;;;;;;;17.30;99.90;;;;;;5060614;28;19912;-74
2021/07/27 04:25:48;;;;;;;;;;;17.30;99.90;;;;;;5062698;28;19912;-74
2021/07/27 04:28:13;;;;;;;;;;;17.30;99.90;;;;;;5053879;28;20300;-74
2021/07/27 04:30:39;;;;;;;;;;;17.30;99.90;;;;;;5063206;28;19922;-75
2021/07/27 04:33:04;;;;;;;;;;;17.30;99.90;;;;;;5053779;28;19920;-75
2021/07/27 04:35:30;;;;;;;;;;;17.30;99.90;;;;;;5059076;28;20003;-74
2021/07/27 04:37:57;;;;;;;;;;;17.30;99.90;;;;;;5069992;28;19917;-74
2021/07/27 04:40:22;;;;;;;;;;;17.30;99.90;;;;;;5073774;28;19952;-75
2021/07/27 04:42:48;;;;;;;;;;;17.30;99.90;;;;;;5062245;28;19952;-75
2021/07/27 04:45:13;;;;;;;;;;;17.30;99.90;;;;;;5061891;28;19912;-75
2021/07/27 04:47:39;;;;;;;;;;;17.30;99.90;;;;;;5056113;28;19927;-74
2021/07/27 04:50:05;;;;;;;;;;;17.30;99.90;;;;;;5061464;28;20289;-74
2021/07/27 04:52:31;;;;;;;;;;;17.30;99.90;;;;;;5060568;28;19920;-74
2021/07/27 04:54:56;;;;;;;;;;;17.40;99.90;;;;;;5070993;28;19916;-74
2021/07/27 04:57:22;;;;;;;;;;;17.40;99.90;;;;;;5068602;28;19913;-75
2021/07/27 04:59:47;;;;;;;;;;;17.40;99.90;;;;;;5059482;28;20382;-74
2021/07/27 05:02:12;;;;;;;;;;;17.40;99.90;;;;;;5072929;28;20254;-75
2021/07/27 05:04:38;;;;;;;;;;;17.50;99.90;;;;;;5065871;28;19920;-75
2021/07/27 05:07:04;;;;;;;;;;;17.50;99.90;;;;;;5057578;28;20381;-75
2021/07/27 05:09:29;;;;;;;;;;;17.50;99.90;;;;;;5054079;28;20003;-74
2021/07/27 05:11:58;;;;;;;;;;;17.50;99.90;;;;;;5052328;28;20281;-74
2021/07/27 05:14:24;;;;;;;;;;;17.50;99.90;;;;;;5053428;28;19963;-74
2021/07/27 05:16:49;;;;;;;;;;;17.50;99.90;;;;;;5062234;28;20385;-73
2021/07/27 05:19:14;;;;;;;;;;;17.40;99.90;;;;;;5056922;28;19966;-75
2021/07/27 05:21:40;;;;;;;;;;;17.50;99.90;;;;;;5067618;28;19924;-73
2021/07/27 05:24:06;;;;;;;;;;;17.50;99.90;;;;;;5064067;28;19999;-75
2021/07/27 05:26:31;;;;;;;;;;;17.40;99.90;;;;;;5060316;28;19919;-75
2021/07/27 05:28:57;;;;;;;;;;;17.50;99.90;;;;;;5072254;28;19912;-74
2021/07/27 05:31:23;;;;;;;;;;;17.50;99.90;;;;;;5072086;28;20003;-73
2021/07/27 05:33:49;;;;;;;;;;;17.50;99.90;;;;;;5065753;28;20019;-73
2021/07/27 05:36:14;;;;;;;;;;;17.50;99.90;;;;;;5066696;28;20407;-74
2021/07/27 05:38:40;;;;;;;;;;;17.50;99.90;;;;;;5069424;28;20012;-73
2021/07/27 05:41:05;;;;;;;;;;;17.60;99.90;;;;;;5055445;28;19917;-74
2021/07/27 05:43:31;;;;;;;;;;;17.60;99.90;;;;;;5056460;28;20425;-74
2021/07/27 05:45:57;;;;;;;;;;;17.60;99.90;;;;;;5059412;28;19912;-75
2021/07/27 05:48:23;;;;;;;;;;;17.60;99.90;;;;;;5066773;28;19913;-74
2021/07/27 05:50:50;;;;;;;;;;;17.60;99.90;;;;;;5059029;28;19920;-73
2021/07/27 05:53:15;;;;;;;;;;;17.60;99.90;;;;;;5070629;28;20016;-74
2021/07/27 05:55:41;;;;;;;;;;;17.70;99.90;;;;;;5072344;28;19959;-73
2021/07/27 05:58:06;;;;;;;;;;;17.70;99.90;;;;;;5065170;28;20011;-73
2021/07/27 06:00:35;;;;;;;;;;;17.80;99.90;;;;;;5060559;28;19913;-72
2021/07/27 06:03:06;;;;;;;;;;;17.80;99.90;;;;;;5053830;28;20415;-72
2021/07/27 06:05:32;;;;;;;;;;;17.80;99.90;;;;;;5067112;28;19916;-72
2021/07/27 06:07:57;;;;;;;;;;;17.80;99.90;;;;;;5075186;28;20332;-72
2021/07/27 06:10:23;;;;;;;;;;;17.80;99.90;;;;;;5075962;28;19962;-72
2021/07/27 06:12:48;;;;;;;;;;;17.90;99.90;;;;;;5074836;28;19912;-72
2021/07/27 06:15:14;;;;;;;;;;;17.90;99.90;;;;;;5072186;28;19916;-72
2021/07/27 06:17:39;;;;;;;;;;;18.00;99.90;;;;;;5065137;28;19982;-72
2021/07/27 06:20:05;;;;;;;;;;;18.00;99.90;;;;;;5075254;28;20408;-72
2021/07/27 06:22:31;;;;;;;;;;;18.10;99.90;;;;;;5075193;28;19965;-73
2021/07/27 06:24:57;;;;;;;;;;;18.10;99.90;;;;;;5076209;28;19920;-72
2021/07/27 06:27:23;;;;;;;;;;;18.10;99.90;;;;;;5073971;28;19912;-72
2021/07/27 06:29:49;;;;;;;;;;;18.10;99.90;;;;;;5063482;28;19919;-72
2021/07/27 06:32:16;;;;;;;;;;;18.10;99.90;;;;;;5064123;28;20214;-72
2021/07/27 06:34:41;;;;;;;;;;;18.20;99.90;;;;;;5069559;28;20327;-73
2021/07/27 06:37:07;;;;;;;;;;;18.20;99.90;;;;;;5065124;28;19916;-73
2021/07/27 06:39:32;;;;;;;;;;;18.20;99.90;;;;;;5059908;28;19920;-72
2021/07/27 06:41:58;;;;;;;;;;;18.30;99.90;;;;;;5062043;28;20384;-72
2021/07/27 06:44:23;;;;;;;;;;;18.30;99.90;;;;;;5076105;28;19970;-74
2021/07/27 06:46:49;;;;;;;;;;;18.40;99.90;;;;;;5073270;28;19912;-74
2021/07/27 06:49:15;;;;;;;;;;;18.40;99.90;;;;;;5069396;28;19912;-74
2021/07/27 06:51:41;;;;;;;;;;;18.40;99.90;;;;;;5073329;28;20007;-74
2021/07/27 06:54:08;;;;;;;;;;;18.50;99.90;;;;;;5075626;28;19927;-73
2021/07/27 06:56:34;;;;;;;;;;;18.70;99.90;;;;;;5076242;28;20007;-73
2021/07/27 06:59:02;;;;;;;;;;;18.80;99.90;;;;;;5070279;28;19959;-71
2021/07/27 07:01:27;;;;;;;;;;;18.90;99.90;;;;;;5073837;28;19999;-72
2021/07/27 07:03:53;;;;;;;;;;;19.00;99.90;;;;;;5062595;28;19975;-73
2021/07/27 07:06:18;;;;;;;;;;;19.10;99.90;;;;;;5075728;28;19912;-73
2021/07/27 07:08:44;;;;;;;;;;;19.10;99.90;;;;;;5072456;28;19908;-75
2021/07/27 07:11:10;;;;;;;;;;;19.20;99.90;;;;;;5075717;28;19912;-73
2021/07/27 07:13:36;;;;;;;;;;;19.20;99.90;;;;;;5072922;28;19916;-72
2021/07/27 07:16:06;;;;;;;;;;;19.20;99.90;;;;;;5074403;28;19996;-73
2021/07/27 07:18:31;;;;;;;;;;;19.20;99.90;;;;;;5054914;28;19935;-72
2021/07/27 07:20:57;;;;;;;;;;;19.10;99.90;;;;;;5067500;28;19924;-72
2021/07/27 07:23:22;;;;;;;;;;;19.10;99.90;;;;;;5069379;28;20015;-73
2021/07/27 07:25:50;;;;;;;;;;;19.00;99.90;;;;;;5067255;28;20332;-73
2021/07/27 07:28:16;;;;;;;;;;;19.00;99.90;;;;;;5075842;28;20007;-74
2021/07/27 07:30:42;;;;;;;;;;;19.00;99.90;;;;;;5056593;28;19909;-74
2021/07/27 07:33:08;;;;;;;;;;;19.00;99.90;;;;;;5056140;28;19932;-74
2021/07/27 07:35:34;;;;;;;;;;;19.00;99.90;;;;;;5055632;28;19919;-72
2021/07/27 07:37:59;;;;;;;;;;;19.00;99.90;;;;;;5072015;28;20365;-72
2021/07/27 07:40:25;;;;;;;;;;;19.00;99.90;;;;;;5076043;28;20383;-73
2021/07/27 07:42:51;;;;;;;;;;;19.10;99.90;;;;;;5066864;28;19917;-73
2021/07/27 07:45:16;;;;;;;;;;;19.20;99.90;;;;;;5074710;28;19909;-72
2021/07/27 07:47:43;;;;;;;;;;;19.20;99.90;;;;;;5070011;28;19912;-73
2021/07/27 07:50:09;;;;;;;;;;;19.20;99.90;;;;;;5062418;28;19992;-72
2021/07/27 07:52:34;;;;;;;;;;;19.20;99.90;;;;;;5060131;28;19944;-73
2021/07/27 07:55:06;;;;;;;;;;;19.20;99.90;;;;;;5056072;28;19951;-72
2021/07/27 07:57:32;;;;;;;;;;;19.20;99.90;;;;;;5067130;28;20278;-72
2021/07/27 08:00:00;;;;;;;;;;;19.30;99.90;;;;;;5065143;28;19949;-72
2021/07/27 08:02:26;;;;;;;;;;;19.30;99.90;;;;;;5066597;28;19917;-72
2021/07/27 08:04:51;;;;;;;;;;;19.30;99.90;;;;;;5067480;28;19909;-73
2021/07/27 08:07:17;;;;;;;;;;;19.30;99.90;;;;;;5063524;28;20375;-73
2021/07/27 08:09:42;;;;;;;;;;;19.40;99.90;;;;;;5078067;28;19990;-73
2021/07/27 08:12:08;;;;;;;;;;;19.50;99.90;;;;;;5065606;28;19912;-73
2021/07/27 08:14:33;;;;;;;;;;;19.80;99.90;;;;;;5069732;28;20317;-73
2021/07/27 08:16:59;;;;;;;;;;;20.00;99.90;;;;;;5070840;28;19913;-74
2021/07/27 08:19:25;;;;;;;;;;;20.10;99.90;;;;;;5065061;28;20029;-74
2021/07/27 08:21:51;;;;;;;;;;;20.10;99.90;;;;;;5066982;28;19924;-72
2021/07/27 08:24:17;;;;;;;;;;;20.30;99.90;;;;;;5063617;28;19955;-73
2021/07/27 08:26:42;;;;;;;;;;;20.30;99.90;;;;;;5072934;28;19915;-75
2021/07/27 08:29:08;;;;;;;;;;;20.20;99.90;;;;;;5073422;28;19908;-74
2021/07/27 08:31:33;;;;;;;;;;;20.10;99.90;;;;;;5072321;28;19912;-74
2021/07/27 08:33:59;;;;;;;;;;;20.00;99.90;;;;;;5071133;28;20287;-72
2021/07/27 08:36:24;;;;;;;;;;;20.00;99.90;;;;;;5066730;28;19909;-75
2021/07/27 08:38:50;;;;;;;;;;;20.00;99.90;;;;;;5054303;28;19909;-73
2021/07/27 08:41:20;;;;;;;;;;;20.00;99.90;;;;;;5063848;28;19955;-75
2021/07/27 08:43:45;;;;;;;;;;;20.00;99.90;;;;;;5072215;28;19999;-74
2021/07/27 08:46:13;;;;;;;;;;;19.90;99.90;;;;;;5069856;28;19944;-72
2021/07/27 08:48:39;;;;;;;;;;;19.90;99.90;;;;;;5054195;28;19909;-74
2021/07/27 08:51:05;;;;;;;;;;;20.00;99.90;;;;;;5053843;28;19919;-74
2021/07/27 08:53:30;;;;;;;;;;;20.00;99.90;;;;;;5052562;28;20003;-73
2021/07/27 08:55:59;;;;;;;;;;;20.10;99.90;;;;;;5056085;28;19925;-74
2021/07/27 08:58:25;;;;;;;;;;;20.20;99.90;;;;;;5073194;28;20412;-74
2021/07/27 09:00:50;;;;;;;;;;;20.20;99.90;;;;;;5052800;28;19941;-73
2021/07/27 09:03:18;;;;;;;;;;;20.20;99.90;;;;;;5054014;28;20379;-75
2021/07/27 09:05:44;;;;;;;;;;;20.30;99.90;;;;;;5053881;28;19944;-74
2021/07/27 09:08:11;;;;;;;;;;;20.20;99.90;;;;;;5054541;28;19916;-77
2021/07/27 09:10:37;;;;;;;;;;;20.10;99.90;;;;;;5071802;28;20323;-75
2021/07/27 09:13:04;;;;;;;;;;;20.10;99.90;;;;;;5072434;28;20444;-72
2021/07/27 09:15:31;;;;;;;;;;;20.10;99.90;;;;;;5070414;28;20384;-74
2021/07/27 09:17:58;;;;;;;;;;;20.10;99.90;;;;;;5070986;28;19995;-75
2021/07/27 09:20:34;;;;;;;;;;;20.00;99.90;;;;;;5072337;28;19920;-74
2021/07/27 09:23:00;;;;;;;;;;;20.10;99.90;;;;;;5070314;28;19913;-75
2021/07/27 09:25:27;;;;;;;;;;;20.20;99.90;;;;;;5054250;28;19913;-75
2021/07/27 09:28:13;;;;;;;;;;;20.20;99.90;;;;;;5063899;28;19923;-73
2021/07/27 09:30:40;;;;;;;;;;;20.30;99.90;;;;;;5068754;28;19912;-74
2021/07/27 09:33:06;;;;;;;;;;;20.20;99.90;;;;;;5068926;28;19917;-76
2021/07/27 09:35:32;;;;;;;;;;;20.30;99.90;;;;;;5073391;28;20019;-76
2021/07/27 09:38:01;;;;;;;;;;;20.30;99.90;;;;;;5074149;28;20390;-74
2021/07/27 09:40:26;;;;;;;;;;;20.20;99.90;;;;;;5068412;28;19913;-76
2021/07/27 09:42:53;;;;;;;;;;;20.10;99.90;;;;;;5063718;28;19919;-75
2021/07/27 09:45:18;;;;;;;;;;;20.00;99.90;;;;;;5067520;28;19912;-74
2021/07/27 09:47:48;;;;;;;;;;;20.00;99.90;;;;;;5071949;28;19919;-83
2021/07/27 09:50:15;;;;;;;;;;;20.00;99.90;;;;;;5077634;28;19915;-84
2021/07/27 09:52:42;;;;;;;;;;;19.90;99.90;;;;;;5077691;28;19908;-84
2021/07/27 09:55:09;;;;;;;;;;;19.90;99.90;;;;;;5079026;28;20422;-84
2021/07/27 09:57:35;;;;;;;;;;;19.90;99.90;;;;;;5079276;28;20276;-85
2021/07/27 10:00:01;;;;;;;;;;;19.90;99.90;;;;;;5078342;28;19908;-84
2021/07/27 10:02:26;;;;;;;;;;;19.90;99.90;;;;;;5076932;28;19916;-85
2021/07/27 10:04:53;;;;;;;;;;;19.90;99.90;;;;;;5077443;28;19917;-82
2021/07/27 10:07:27;;;;;;;;;;;19.90;99.90;;;;;;5076417;28;20418;-85
2021/07/27 10:10:04;;;;;;;;;;;19.90;99.90;;;;;;5076379;28;19908;-85
2021/07/27 10:12:32;;;;;;;;;;;19.90;99.90;;;;;;5077430;28;19909;-85
2021/07/27 10:15:08;;;;;;;;;;;19.80;99.90;;;;;;5077046;28;19913;-85
2021/07/27 10:17:33;;;;;;;;;;;19.80;99.90;;;;;;5077887;28;19916;-84
2021/07/27 10:20:00;;;;;;;;;;;19.80;99.90;;;;;;5078732;28;19916;-85
2021/07/27 10:22:32;;;;;;;;;;;19.80;99.90;;;;;;5078547;28;20381;-87
2021/07/27 10:24:58;;;;;;;;;;;19.80;99.90;;;;;;5078334;28;20324;-84
2021/07/27 10:27:26;;;;;;;;;;;19.80;99.90;;;;;;5076637;28;19920;-84
2021/07/27 10:29:52;;;;;;;;;;;19.70;99.90;;;;;;5078619;28;19920;-85
2021/07/27 10:32:19;;;;;;;;;;;19.70;99.90;;;;;;5078213;28;19913;-84
2021/07/27 10:34:45;;;;;;;;;;;19.60;99.90;;;;;;5077660;28;19979;-84
2021/07/27 10:37:14;;;;;;;;;;;19.40;99.90;;;;;;5078617;28;19912;-85
2021/07/27 10:39:52;;;;;;;;;;;19.40;99.90;;;;;;5078591;28;19920;-88
2021/07/27 10:42:18;;;;;;;;;;;19.20;99.90;;;;;;5078931;28;19920;-86
2021/07/27 10:44:44;;;;;;;;;;;19.20;99.90;;;;;;5076866;28;19916;-86
2021/07/27 10:47:17;;;;;;;;;;;19.10;99.90;;;;;;5076681;28;19920;-85
2021/07/27 10:49:43;;;;;;;;;;;19.10;99.90;;;;;;5077173;28;19919;-85
2021/07/27 10:52:08;;;;;;;;;;;19.10;99.90;;;;;;5076015;28;19913;-82
2021/07/27 10:54:34;;;;;;;;;;;19.20;99.90;;;;;;5076435;28;19917;-82
2021/07/27 10:57:01;;;;;;;;;;;19.20;99.90;;;;;;5075050;28;20345;-84
2021/07/27 10:59:30;;;;;;;;;;;19.40;99.90;;;;;;5076742;28;19912;-84
2021/07/27 11:01:56;;;;;;;;;;;19.50;99.90;;;;;;5076765;28;20292;-83
2021/07/27 11:04:25;;;;;;;;;;;19.60;99.90;;;;;;5075553;28;19916;-85
2021/07/27 11:06:51;;;;;;;;;;;19.60;99.90;;;;;;5075455;28;19920;-85
2021/07/27 11:09:16;;;;;;;;;;;19.60;99.90;;;;;;5076380;28;20377;-84
2021/07/27 11:11:43;;;;;;;;;;;19.60;99.90;;;;;;5075473;28;19919;-84
2021/07/27 11:14:09;;;;;;;;;;;19.50;99.90;;;;;;5076391;28;20406;-83
2021/07/27 11:16:41;;;;;;;;;;;19.40;99.90;;;;;;5076591;28;19912;-84
2021/07/27 11:19:09;;;;;;;;;;;19.40;99.90;;;;;;5076834;28;19917;-84
2021/07/27 11:21:34;;;;;;;;;;;19.30;99.90;;;;;;5074492;28;20014;-85
2021/07/27 11:24:00;;;;;;;;;;;19.30;99.90;;;;;;5075939;28;19912;-84
2021/07/27 11:26:35;;;;;;;;;;;19.30;99.90;;;;;;5074881;28;20007;-85
2021/07/27 11:29:08;;;;;;;;;;;19.30;99.90;;;;;;5074939;28;20018;-84
2021/07/27 11:31:43;;;;;;;;;;;19.30;99.90;;;;;;5075138;28;19912;-84
2021/07/27 11:34:09;;;;;;;;;;;19.30;99.90;;;;;;5075746;28;20287;-84
2021/07/27 11:36:34;;;;;;;;;;;19.20;99.90;;;;;;5074278;28;20015;-84
2021/07/27 11:39:03;;;;;;;;;;;19.30;99.90;;;;;;5075140;28;19912;-84
2021/07/27 11:41:29;;;;;;;;;;;19.20;99.90;;;;;;5075305;28;19919;-83
2021/07/27 11:43:55;;;;;;;;;;;19.20;99.90;;;;;;5074012;28;19913;-83
2021/07/27 11:46:29;;;;;;;;;;;19.30;99.90;;;;;;5075739;28;19951;-84
2021/07/27 11:48:55;;;;;;;;;;;19.30;99.90;;;;;;5075200;28;19920;-84
2021/07/27 11:51:33;;;;;;;;;;;19.30;99.90;;;;;;5075671;28;19912;-84
2021/07/27 11:53:59;;;;;;;;;;;19.50;99.90;;;;;;5075114;28;19951;-84
2021/07/27 11:56:25;;;;;;;;;;;19.60;99.90;;;;;;5073872;28;20304;-83
2021/07/27 11:59:00;;;;;;;;;;;19.70;99.90;;;;;;5073806;28;19913;-83
2021/07/27 12:01:35;;;;;;;;;;;20.00;99.90;;;;;;5075158;28;19955;-84
2021/07/27 12:04:01;;;;;;;;;;;20.40;99.90;;;;;;5075241;28;19919;-82
2021/07/27 12:06:26;;;;;;;;;;;20.60;99.90;;;;;;5076608;28;20011;-83
2021/07/27 12:08:52;;;;;;;;;;;20.80;99.90;;;;;;5074713;28;20346;-83
2021/07/27 12:11:17;;;;;;;;;;;20.90;99.90;;;;;;5075379;28;20373;-82
2021/07/27 12:13:43;;;;;;;;;;;21.00;99.90;;;;;;5075369;28;20015;-84
2021/07/27 12:16:08;;;;;;;;;;;21.20;99.90;;;;;;5074759;28;20361;-84
2021/07/27 12:18:34;;;;;;;;;;;21.30;99.90;;;;;;5074497;28;19912;-83
2021/07/27 12:20:59;;;;;;;;;;;21.40;99.90;;;;;;5073225;28;19926;-82
2021/07/27 12:23:25;;;;;;;;;;;21.60;99.90;;;;;;5074431;28;20381;-83
2021/07/27 12:25:50;;;;;;;;;;;21.80;99.90;;;;;;5074866;28;19913;-83
2021/07/27 12:28:16;;;;;;;;;;;22.00;99.90;;;;;;5075320;28;19912;-85
2021/07/27 12:30:41;;;;;;;;;;;22.10;99.90;;;;;;5071365;28;20365;-84
2021/07/27 12:33:07;;;;;;;;;;;22.20;99.90;;;;;;5054080;28;19951;-85
2021/07/27 12:35:32;;;;;;;;;;;22.50;99.90;;;;;;5053856;28;20007;-84
2021/07/27 12:37:58;;;;;;;;;;;22.70;99.90;;;;;;5055054;28;20003;-83
2021/07/27 12:40:23;;;;;;;;;;;22.90;99.90;;;;;;5089109;28;19913;-85
2021/07/27 12:42:49;;;;;;;;;;;23.00;99.90;;;;;;5055593;28;20424;-85
2021/07/27 12:45:14;;;;;;;;;;;23.10;99.90;;;;;;5056022;28;20011;-85
2021/07/27 12:47:40;;;;;;;;;;;23.20;99.90;;;;;;5056222;28;19951;-86
2021/07/27 12:50:06;;;;;;;;;;;23.30;99.90;;;;;;5088565;28;19923;-86
2021/07/27 12:52:32;;;;;;;;;;;23.50;99.90;;;;;;5056583;28;20296;-86
2021/07/27 12:54:57;;;;;;;;;;;23.60;99.90;;;;;;5055265;28;19927;-85
2021/07/27 12:57:23;;;;;;;;;;;23.50;99.90;;;;;;5056648;28;19986;-85
2021/07/27 12:59:48;;;;;;;;;;;23.60;99.90;;;;;;5089023;28;19913;-85
2021/07/27 13:02:14;;;;;;;;;;;23.80;99.90;;;;;;5055890;28;20004;-86
2021/07/27 13:04:39;;;;;;;;;;;23.90;99.90;;;;;;5056854;28;19919;-87
2021/07/27 13:07:05;;;;;;;;;;;23.70;99.90;;;;;;5088103;28;19956;-86
2021/07/27 13:09:31;;;;;;;;;;;23.50;99.90;;;;;;5089244;28;19913;-87
2021/07/27 13:11:56;;;;;;;;;;;23.30;99.90;;;;;;5056857;28;19912;-87
2021/07/27 13:14:22;;;;;;;;;;;23.20;99.90;;;;;;5060433;28;19931;-86
2021/07/27 13:16:47;;;;;;;;;;;23.10;99.90;;;;;;5060125;28;19913;-85
2021/07/27 13:21:57;;;;;;;;;;;22.90;99.90;;;;;;5061389;28;20070;-86
2021/07/27 13:24:23;;;;;;;;;;;22.90;99.90;;;;;;5060107;28;19975;-87
2021/07/27 13:26:49;;;;;;;;;;;22.90;99.90;;;;;;5093078;28;19897;-87
2021/07/27 13:29:14;;;;;;;;;;;22.90;99.90;;;;;;5060675;28;19913;-88
2021/07/27 13:31:40;;;;;;;;;;;23.20;99.90;;;;;;5091700;28;20123;-87
2021/07/27 13:34:05;;;;;;;;;;;23.50;99.90;;;;;;5060710;28;20023;-87
2021/07/27 13:36:31;;;;;;;;;;;23.70;99.90;;;;;;5092649;28;19913;-88
2021/07/27 13:38:58;;;;;;;;;;;23.90;99.90;;;;;;5060258;28;19913;-87
2021/07/27 13:41:24;;;;;;;;;;;24.00;99.90;;;;;;5059501;28;20343;-87
2021/07/27 13:43:49;;;;;;;;;;;24.10;99.90;;;;;;5093212;28;19913;-86
2021/07/27 13:46:15;;;;;;;;;;;24.20;99.90;;;;;;5058528;28;20289;-87
2021/07/27 13:48:41;;;;;;;;;;;24.20;99.90;;;;;;5059932;28;19917;-88
2021/07/27 13:51:06;;;;;;;;;;;24.20;99.90;;;;;;5058693;28;20285;-85
2021/07/27 13:53:32;;;;;;;;;;;24.20;99.90;;;;;;5060401;28;19913;-88
2021/07/27 13:55:58;;;;;;;;;;;24.30;99.90;;;;;;5069047;28;20308;-87
2021/07/27 13:58:24;;;;;;;;;;;24.30;99.90;;;;;;5077230;28;19919;-87
2021/07/27 14:00:49;;;;;;;;;;;24.40;99.90;;;;;;5069519;28;19916;-84
2021/07/27 14:03:14;;;;;;;;;;;24.40;99.90;;;;;;5069460;28;19917;-86
2021/07/27 14:05:40;;;;;;;;;;;24.40;99.90;;;;;;5071375;28;19916;-86
2021/07/27 14:08:05;;;;;;;;;;;24.30;99.90;;;;;;5065849;28;19913;-87
2021/07/27 14:10:31;;;;;;;;;;;24.10;99.90;;;;;;5065683;28;20262;-87
2021/07/27 14:12:56;;;;;;;;;;;24.10;99.90;;;;;;5073973;28;19912;-89
2021/07/27 14:15:22;;;;;;;;;;;24.20;99.90;;;;;;5069047;28;19923;-86
2021/07/27 14:17:48;;;;;;;;;;;24.20;99.90;;;;;;5067884;28;19912;-87
2021/07/27 14:20:13;;;;;;;;;;;24.10;99.90;;;;;;5070234;28;20341;-87
2021/07/27 14:22:39;;;;;;;;;;;24.10;99.90;;;;;;5070376;28;19913;-88
2021/07/27 14:25:05;;;;;;;;;;;24.10;99.90;;;;;;5064674;28;19916;-85
2021/07/27 14:27:30;;;;;;;;;;;24.20;99.90;;;;;;5073011;28;20409;-86
2021/07/27 14:29:57;;;;;;;;;;;24.00;99.90;;;;;;5066952;28;20272;-86
2021/07/27 14:32:22;;;;;;;;;;;23.90;99.90;;;;;;5072459;28;19913;-86
2021/07/27 14:34:48;;;;;;;;;;;23.80;99.90;;;;;;5077626;28;19947;-87
2021/07/27 14:37:13;;;;;;;;;;;23.60;99.90;;;;;;5084813;28;19969;-86
2021/07/27 14:39:39;;;;;;;;;;;23.40;99.90;;;;;;5082425;28;19931;-87
2021/07/27 14:42:04;;;;;;;;;;;23.20;99.90;;;;;;5083607;28;19919;-85